sensor_id;sensor_type;location;lat;lon;timestamp;temperature;humidity
41471;DHT22;27211;51.220;5.308;2022-12-28T00:01:41;7.80;99.90
41471;DHT22;27211;51.220;5.308;2022-12-28T00:04:06;7.80;99.90
41471;DHT22;27211;51.220;5.308;2022-12-28T00:06:32;7.80;99.90
41471;DHT22;27211;51.220;5.308;2022-12-28T00:08:59;7.80;99.90
41471;DHT22;27211;51.220;5.308;2022-12-28T00:11:26;7.80;99.90
41471;DHT22;27211;51.220;5.308;2022-12-28T00:13:53;7.80;99.90
41471;DHT22;27211;51.220;5.308;2022-12-28T00:16:32;7.80;99.90
41471;DHT22;27211;51.220;5.308;2022-12-28T00:19:00;7.80;99.90
41471;DHT22;27211;51.220;5.308;2022-12-28T00:21:26;7.80;99.90
41471;DHT22;27211;51.220;5.308;2022-12-28T00:23:55;7.80;99.90
41471;DHT22;27211;51.220;5.308;2022-12-28T00:26:31;7.80;99.90
41471;DHT22;27211;51.220;5.308;2022-12-28T00:28:58;7.70;99.90
41471;DHT22;27211;51.220;5.308;2022-12-28T00:31:24;7.70;99.90
41471;DHT22;27211;51.220;5.308;2022-12-28T00:33:49;7.70;99.90
41471;DHT22;27211;51.220;5.308;2022-12-28T00:36:15;7.80;99.90
41471;DHT22;27211;51.220;5.308;2022-12-28T00:38:42;7.80;99.90
41471;DHT22;27211;51.220;5.308;2022-12-28T00:41:09;7.80;99.90
41471;DHT22;27211;51.220;5.308;2022-12-28T00:43:35;7.70;99.90
41471;DHT22;27211;51.220;5.308;2022-12-28T00:46:01;7.80;99.90
41471;DHT22;27211;51.220;5.308;2022-12-28T00:48:27;7.80;99.90
41471;DHT22;27211;51.220;5.308;2022-12-28T00:51:00;7.80;99.90
41471;DHT22;27211;51.220;5.308;2022-12-28T00:53:27;7.90;99.90
41471;DHT22;27211;51.220;5.308;2022-12-28T00:55:53;7.80;99.90
41471;DHT22;27211;51.220;5.308;2022-12-28T00:58:18;7.80;99.90
41471;DHT22;27211;51.220;5.308;2022-12-28T01:00:45;7.80;99.90
41471;DHT22;27211;51.220;5.308;2022-12-28T01:03:11;7.80;99.90
41471;DHT22;27211;51.220;5.308;2022-12-28T01:05:40;7.80;99.90
41471;DHT22;27211;51.220;5.308;2022-12-28T01:08:06;7.70;99.90
41471;DHT22;27211;51.220;5.308;2022-12-28T01:10:32;7.70;99.90
41471;DHT22;27211;51.220;5.308;2022-12-28T01:12:58;7.80;99.90
41471;DHT22;27211;51.220;5.308;2022-12-28T01:15:24;7.80;99.90
41471;DHT22;27211;51.220;5.308;2022-12-28T01:17:50;7.90;99.90
41471;DHT22;27211;51.220;5.308;2022-12-28T01:20:17;7.90;99.90
41471;DHT22;27211;51.220;5.308;2022-12-28T01:22:43;7.90;99.90
41471;DHT22;27211;51.220;5.308;2022-12-28T01:25:08;8.00;99.90
41471;DHT22;27211;51.220;5.308;2022-12-28T01:27:35;8.00;99.90
41471;DHT22;27211;51.220;5.308;2022-12-28T01:30:00;8.10;99.90
41471;DHT22;27211;51.220;5.308;2022-12-28T01:32:27;8.10;99.90
41471;DHT22;27211;51.220;5.308;2022-12-28T01:34:52;8.10;99.90
41471;DHT22;27211;51.220;5.308;2022-12-28T01:37:18;8.10;99.90
41471;DHT22;27211;51.220;5.308;2022-12-28T01:39:44;8.10;99.90
41471;DHT22;27211;51.220;5.308;2022-12-28T01:42:16;8.10;99.90
41471;DHT22;27211;51.220;5.308;2022-12-28T01:44:45;8.20;99.90
41471;DHT22;27211;51.220;5.308;2022-12-28T01:47:15;8.20;99.90
41471;DHT22;27211;51.220;5.308;2022-12-28T01:55:05;8.40;99.90
41471;DHT22;27211;51.220;5.308;2022-12-28T01:57:40;8.30;99.90
41471;DHT22;27211;51.220;5.308;2022-12-28T02:00:12;8.30;99.90
41471;DHT22;27211;51.220;5.308;2022-12-28T02:02:46;8.20;99.90
41471;DHT22;27211;51.220;5.308;2022-12-28T02:05:13;8.30;99.90
41471;DHT22;27211;51.220;5.308;2022-12-28T02:10:36;8.30;99.90
41471;DHT22;27211;51.220;5.308;2022-12-28T02:13:02;8.30;99.90
41471;DHT22;27211;51.220;5.308;2022-12-28T02:15:29;8.30;99.90
41471;DHT22;27211;51.220;5.308;2022-12-28T02:17:57;8.30;99.90
41471;DHT22;27211;51.220;5.308;2022-12-28T02:20:29;8.30;99.90
41471;DHT22;27211;51.220;5.308;2022-12-28T02:23:09;8.40;99.90
41471;DHT22;27211;51.220;5.308;2022-12-28T02:26:11;8.40;99.90
41471;DHT22;27211;51.220;5.308;2022-12-28T02:31:28;8.50;99.90
41471;DHT22;27211;51.220;5.308;2022-12-28T02:34:12;8.50;99.90
41471;DHT22;27211;51.220;5.308;2022-12-28T02:36:46;8.50;99.90
41471;DHT22;27211;51.220;5.308;2022-12-28T02:39:21;8.50;99.90
41471;DHT22;27211;51.220;5.308;2022-12-28T02:41:51;8.40;99.90
41471;DHT22;27211;51.220;5.308;2022-12-28T02:44:18;8.50;99.90
41471;DHT22;27211;51.220;5.308;2022-12-28T02:47:04;8.50;99.90
41471;DHT22;27211;51.220;5.308;2022-12-28T02:49:48;8.40;99.90
41471;DHT22;27211;51.220;5.308;2022-12-28T03:09:37;8.10;99.90
41471;DHT22;27211;51.220;5.308;2022-12-28T03:12:09;8.20;99.90
41471;DHT22;27211;51.220;5.308;2022-12-28T03:14:45;8.20;99.90
41471;DHT22;27211;51.220;5.308;2022-12-28T03:17:12;8.10;99.90
41471;DHT22;27211;51.220;5.308;2022-12-28T03:20:01;8.00;99.90
41471;DHT22;27211;51.220;5.308;2022-12-28T03:22:48;8.00;99.90
41471;DHT22;27211;51.220;5.308;2022-12-28T03:25:38;8.10;99.90
41471;DHT22;27211;51.220;5.308;2022-12-28T03:28:23;8.00;99.90
41471;DHT22;27211;51.220;5.308;2022-12-28T03:31:13;8.10;99.90
41471;DHT22;27211;51.220;5.308;2022-12-28T03:33:47;8.10;99.90
41471;DHT22;27211;51.220;5.308;2022-12-28T03:39:21;8.10;99.90
41471;DHT22;27211;51.220;5.308;2022-12-28T03:41:57;8.20;99.90
41471;DHT22;27211;51.220;5.308;2022-12-28T03:44:49;8.20;99.90
41471;DHT22;27211;51.220;5.308;2022-12-28T03:47:20;8.20;99.90
41471;DHT22;27211;51.220;5.308;2022-12-28T03:49:48;8.20;99.90
41471;DHT22;27211;51.220;5.308;2022-12-28T03:52:14;8.20;99.90
41471;DHT22;27211;51.220;5.308;2022-12-28T03:54:41;8.20;99.90
41471;DHT22;27211;51.220;5.308;2022-12-28T03:57:07;8.20;99.90
41471;DHT22;27211;51.220;5.308;2022-12-28T03:59:33;8.20;99.90
41471;DHT22;27211;51.220;5.308;2022-12-28T04:01:59;8.20;99.90
41471;DHT22;27211;51.220;5.308;2022-12-28T04:04:25;8.30;99.90
41471;DHT22;27211;51.220;5.308;2022-12-28T04:06:50;8.40;99.90
41471;DHT22;27211;51.220;5.308;2022-12-28T04:09:17;8.40;99.90
41471;DHT22;27211;51.220;5.308;2022-12-28T04:11:43;8.40;99.90
41471;DHT22;27211;51.220;5.308;2022-12-28T04:14:09;8.40;99.90
41471;DHT22;27211;51.220;5.308;2022-12-28T04:16:35;8.50;99.90
41471;DHT22;27211;51.220;5.308;2022-12-28T04:19:01;8.60;99.90
41471;DHT22;27211;51.220;5.308;2022-12-28T04:21:27;8.60;99.90
41471;DHT22;27211;51.220;5.308;2022-12-28T04:23:54;8.60;99.90
41471;DHT22;27211;51.220;5.308;2022-12-28T04:26:19;8.50;99.90
41471;DHT22;27211;51.220;5.308;2022-12-28T04:28:46;8.60;99.90
41471;DHT22;27211;51.220;5.308;2022-12-28T04:31:13;8.60;99.90
41471;DHT22;27211;51.220;5.308;2022-12-28T04:33:39;8.70;99.90
41471;DHT22;27211;51.220;5.308;2022-12-28T04:36:13;8.60;99.90
41471;DHT22;27211;51.220;5.308;2022-12-28T04:38:39;8.60;99.90
41471;DHT22;27211;51.220;5.308;2022-12-28T04:41:06;8.60;99.90
41471;DHT22;27211;51.220;5.308;2022-12-28T04:43:35;8.70;99.90
41471;DHT22;27211;51.220;5.308;2022-12-28T04:46:19;8.70;99.90
41471;DHT22;27211;51.220;5.308;2022-12-28T04:48:45;8.70;99.90
41471;DHT22;27211;51.220;5.308;2022-12-28T04:51:24;8.80;99.90
41471;DHT22;27211;51.220;5.308;2022-12-28T04:53:51;8.80;99.90
41471;DHT22;27211;51.220;5.308;2022-12-28T04:56:19;8.80;99.90
41471;DHT22;27211;51.220;5.308;2022-12-28T04:58:45;8.80;99.90
41471;DHT22;27211;51.220;5.308;2022-12-28T05:01:18;8.80;99.90
41471;DHT22;27211;51.220;5.308;2022-12-28T05:03:46;8.80;99.90
41471;DHT22;27211;51.220;5.308;2022-12-28T05:06:14;8.80;99.90
41471;DHT22;27211;51.220;5.308;2022-12-28T05:08:41;8.70;99.90
41471;DHT22;27211;51.220;5.308;2022-12-28T05:11:11;8.80;99.90
41471;DHT22;27211;51.220;5.308;2022-12-28T05:13:37;8.80;99.90
41471;DHT22;27211;51.220;5.308;2022-12-28T05:16:07;8.80;99.90
41471;DHT22;27211;51.220;5.308;2022-12-28T05:18:33;8.80;99.90
41471;DHT22;27211;51.220;5.308;2022-12-28T05:21:01;8.70;99.90
41471;DHT22;27211;51.220;5.308;2022-12-28T05:23:28;8.70;99.90
41471;DHT22;27211;51.220;5.308;2022-12-28T05:25:55;8.80;99.90
41471;DHT22;27211;51.220;5.308;2022-12-28T05:28:22;8.80;99.90
41471;DHT22;27211;51.220;5.308;2022-12-28T05:30:48;8.80;99.90
41471;DHT22;27211;51.220;5.308;2022-12-28T05:33:14;8.80;99.90
41471;DHT22;27211;51.220;5.308;2022-12-28T05:35:40;8.80;99.90
41471;DHT22;27211;51.220;5.308;2022-12-28T05:38:06;8.80;99.90
41471;DHT22;27211;51.220;5.308;2022-12-28T05:40:32;8.80;99.90
41471;DHT22;27211;51.220;5.308;2022-12-28T05:42:58;8.90;99.90
41471;DHT22;27211;51.220;5.308;2022-12-28T05:45:25;8.90;99.90
41471;DHT22;27211;51.220;5.308;2022-12-28T05:47:53;8.90;99.90
41471;DHT22;27211;51.220;5.308;2022-12-28T05:50:19;9.00;99.90
41471;DHT22;27211;51.220;5.308;2022-12-28T05:52:45;9.00;99.90
41471;DHT22;27211;51.220;5.308;2022-12-28T05:55:11;9.00;99.90
41471;DHT22;27211;51.220;5.308;2022-12-28T05:57:36;9.00;99.90
41471;DHT22;27211;51.220;5.308;2022-12-28T06:00:03;9.00;99.90
41471;DHT22;27211;51.220;5.308;2022-12-28T06:02:32;9.00;99.90
41471;DHT22;27211;51.220;5.308;2022-12-28T06:04:57;9.10;99.90
41471;DHT22;27211;51.220;5.308;2022-12-28T06:07:23;9.10;99.90
41471;DHT22;27211;51.220;5.308;2022-12-28T06:09:50;9.10;99.90
41471;DHT22;27211;51.220;5.308;2022-12-28T06:12:16;9.10;99.90
41471;DHT22;27211;51.220;5.308;2022-12-28T06:14:42;9.10;99.90
41471;DHT22;27211;51.220;5.308;2022-12-28T06:17:08;9.20;99.90
41471;DHT22;27211;51.220;5.308;2022-12-28T06:19:34;9.20;99.90
41471;DHT22;27211;51.220;5.308;2022-12-28T06:21:59;9.20;99.90
41471;DHT22;27211;51.220;5.308;2022-12-28T06:24:25;9.20;99.90
41471;DHT22;27211;51.220;5.308;2022-12-28T06:26:51;9.30;99.90
41471;DHT22;27211;51.220;5.308;2022-12-28T06:29:17;9.30;99.90
41471;DHT22;27211;51.220;5.308;2022-12-28T06:31:46;9.20;99.90
41471;DHT22;27211;51.220;5.308;2022-12-28T06:34:12;9.20;99.90
41471;DHT22;27211;51.220;5.308;2022-12-28T06:36:41;9.10;99.90
41471;DHT22;27211;51.220;5.308;2022-12-28T06:39:09;9.10;99.90
41471;DHT22;27211;51.220;5.308;2022-12-28T06:41:36;9.00;99.90
41471;DHT22;27211;51.220;5.308;2022-12-28T06:44:05;9.10;99.90
41471;DHT22;27211;51.220;5.308;2022-12-28T06:46:31;9.10;99.90
41471;DHT22;27211;51.220;5.308;2022-12-28T06:48:57;9.10;99.90
41471;DHT22;27211;51.220;5.308;2022-12-28T06:51:30;9.00;99.90
41471;DHT22;27211;51.220;5.308;2022-12-28T06:53:56;9.00;99.90
41471;DHT22;27211;51.220;5.308;2022-12-28T06:56:26;9.00;99.90
41471;DHT22;27211;51.220;5.308;2022-12-28T06:58:53;9.00;99.90
41471;DHT22;27211;51.220;5.308;2022-12-28T07:01:25;9.00;99.90
41471;DHT22;27211;51.220;5.308;2022-12-28T17:09:49;10.10;99.90
41471;DHT22;27211;51.220;5.308;2022-12-28T17:12:15;10.10;99.90
41471;DHT22;27211;51.220;5.308;2022-12-28T17:14:41;10.00;99.90
41471;DHT22;27211;51.220;5.308;2022-12-28T17:17:07;10.00;99.90
41471;DHT22;27211;51.220;5.308;2022-12-28T17:19:33;9.90;99.90
41471;DHT22;27211;51.220;5.308;2022-12-28T17:21:59;9.90;99.90
41471;DHT22;27211;51.220;5.308;2022-12-28T17:24:25;9.90;99.90
41471;DHT22;27211;51.220;5.308;2022-12-28T17:26:51;9.80;99.90
41471;DHT22;27211;51.220;5.308;2022-12-28T17:29:18;9.80;99.90
41471;DHT22;27211;51.220;5.308;2022-12-28T17:31:43;9.70;99.90
41471;DHT22;27211;51.220;5.308;2022-12-28T17:34:09;9.70;99.90
41471;DHT22;27211;51.220;5.308;2022-12-28T17:36:36;9.70;99.90
41471;DHT22;27211;51.220;5.308;2022-12-28T17:39:02;9.60;99.90
41471;DHT22;27211;51.220;5.308;2022-12-28T17:41:28;9.60;99.90
41471;DHT22;27211;51.220;5.308;2022-12-28T17:43:56;9.60;99.90
41471;DHT22;27211;51.220;5.308;2022-12-28T17:46:25;9.60;99.90
41471;DHT22;27211;51.220;5.308;2022-12-28T17:48:56;9.50;99.90
41471;DHT22;27211;51.220;5.308;2022-12-28T17:51:22;9.50;99.90
41471;DHT22;27211;51.220;5.308;2022-12-28T17:53:50;9.60;99.90
41471;DHT22;27211;51.220;5.308;2022-12-28T17:56:16;9.60;99.90
41471;DHT22;27211;51.220;5.308;2022-12-28T17:58:43;9.50;99.90
41471;DHT22;27211;51.220;5.308;2022-12-28T18:01:10;9.50;99.90
41471;DHT22;27211;51.220;5.308;2022-12-28T18:03:36;9.50;99.90
41471;DHT22;27211;51.220;5.308;2022-12-28T18:06:02;9.40;99.90
41471;DHT22;27211;51.220;5.308;2022-12-28T18:08:29;9.50;99.90
41471;DHT22;27211;51.220;5.308;2022-12-28T18:10:55;9.40;99.90
41471;DHT22;27211;51.220;5.308;2022-12-28T18:13:21;9.40;99.90
41471;DHT22;27211;51.220;5.308;2022-12-28T18:15:47;9.40;99.90
41471;DHT22;27211;51.220;5.308;2022-12-28T18:18:15;9.40;99.90
41471;DHT22;27211;51.220;5.308;2022-12-28T18:20:42;9.40;99.90
41471;DHT22;27211;51.220;5.308;2022-12-28T18:23:09;9.40;99.90
41471;DHT22;27211;51.220;5.308;2022-12-28T18:25:35;9.40;99.90
41471;DHT22;27211;51.220;5.308;2022-12-28T18:28:01;9.40;99.90
41471;DHT22;27211;51.220;5.308;2022-12-28T18:30:28;9.50;99.90
41471;DHT22;27211;51.220;5.308;2022-12-28T18:32:54;9.50;99.90
41471;DHT22;27211;51.220;5.308;2022-12-28T18:35:20;9.50;99.90
41471;DHT22;27211;51.220;5.308;2022-12-28T18:37:49;9.50;99.90
41471;DHT22;27211;51.220;5.308;2022-12-28T18:40:15;9.50;99.90
41471;DHT22;27211;51.220;5.308;2022-12-28T18:42:41;9.60;99.90
41471;DHT22;27211;51.220;5.308;2022-12-28T18:45:08;9.60;99.90
41471;DHT22;27211;51.220;5.308;2022-12-28T18:47:35;9.70;99.90
41471;DHT22;27211;51.220;5.308;2022-12-28T18:50:02;9.70;99.90
41471;DHT22;27211;51.220;5.308;2022-12-28T18:52:28;9.70;99.90
41471;DHT22;27211;51.220;5.308;2022-12-28T18:54:56;9.70;99.90
41471;DHT22;27211;51.220;5.308;2022-12-28T18:57:22;9.70;99.90
41471;DHT22;27211;51.220;5.308;2022-12-28T18:59:48;9.80;99.90
41471;DHT22;27211;51.220;5.308;2022-12-28T19:02:14;9.80;99.90
41471;DHT22;27211;51.220;5.308;2022-12-28T19:04:40;9.80;99.90
41471;DHT22;27211;51.220;5.308;2022-12-28T19:07:05;9.90;99.90
41471;DHT22;27211;51.220;5.308;2022-12-28T19:09:31;10.00;99.90
41471;DHT22;27211;51.220;5.308;2022-12-28T19:11:57;10.00;99.90
41471;DHT22;27211;51.220;5.308;2022-12-28T19:14:24;10.00;99.90
41471;DHT22;27211;51.220;5.308;2022-12-28T19:16:50;10.00;99.90
41471;DHT22;27211;51.220;5.308;2022-12-28T19:19:15;10.00;99.90
41471;DHT22;27211;51.220;5.308;2022-12-28T19:21:42;10.10;99.90
41471;DHT22;27211;51.220;5.308;2022-12-28T19:24:17;10.10;99.90
41471;DHT22;27211;51.220;5.308;2022-12-28T19:26:44;10.20;99.90
41471;DHT22;27211;51.220;5.308;2022-12-28T19:29:13;10.20;99.90
41471;DHT22;27211;51.220;5.308;2022-12-28T19:31:40;10.30;99.90
41471;DHT22;27211;51.220;5.308;2022-12-28T19:34:06;10.30;99.90
41471;DHT22;27211;51.220;5.308;2022-12-28T19:36:32;10.30;99.90
41471;DHT22;27211;51.220;5.308;2022-12-28T19:38:58;10.40;99.90
41471;DHT22;27211;51.220;5.308;2022-12-28T19:41:24;10.40;99.90
41471;DHT22;27211;51.220;5.308;2022-12-28T19:43:51;10.30;99.90
41471;DHT22;27211;51.220;5.308;2022-12-28T19:46:18;10.40;99.90
41471;DHT22;27211;51.220;5.308;2022-12-28T19:48:45;10.50;99.90
41471;DHT22;27211;51.220;5.308;2022-12-28T19:51:11;10.50;99.90
41471;DHT22;27211;51.220;5.308;2022-12-28T19:53:38;10.50;99.90
41471;DHT22;27211;51.220;5.308;2022-12-28T19:56:07;10.50;99.90
41471;DHT22;27211;51.220;5.308;2022-12-28T19:58:34;10.50;99.90
41471;DHT22;27211;51.220;5.308;2022-12-28T20:03:30;10.50;99.90
41471;DHT22;27211;51.220;5.308;2022-12-28T20:05:56;10.60;99.90
41471;DHT22;27211;51.220;5.308;2022-12-28T20:08:28;10.50;99.90
41471;DHT22;27211;51.220;5.308;2022-12-28T20:10:54;10.50;99.90
41471;DHT22;27211;51.220;5.308;2022-12-28T20:13:21;10.60;99.90
41471;DHT22;27211;51.220;5.308;2022-12-28T20:15:46;10.60;99.90
41471;DHT22;27211;51.220;5.308;2022-12-28T20:18:13;10.60;99.90
41471;DHT22;27211;51.220;5.308;2022-12-28T20:20:38;10.60;99.90
41471;DHT22;27211;51.220;5.308;2022-12-28T20:23:04;10.70;99.90
41471;DHT22;27211;51.220;5.308;2022-12-28T20:25:30;10.70;99.90
41471;DHT22;27211;51.220;5.308;2022-12-28T20:27:56;10.80;99.90
41471;DHT22;27211;51.220;5.308;2022-12-28T20:30:22;10.80;99.90
41471;DHT22;27211;51.220;5.308;2022-12-28T20:32:48;10.90;99.90
41471;DHT22;27211;51.220;5.308;2022-12-28T20:35:15;10.90;99.90
41471;DHT22;27211;51.220;5.308;2022-12-28T20:37:41;11.00;99.90
41471;DHT22;27211;51.220;5.308;2022-12-28T20:40:08;11.00;99.90
41471;DHT22;27211;51.220;5.308;2022-12-28T20:42:35;11.00;99.90
41471;DHT22;27211;51.220;5.308;2022-12-28T20:45:19;11.00;99.90
41471;DHT22;27211;51.220;5.308;2022-12-28T20:47:45;11.20;99.90
41471;DHT22;27211;51.220;5.308;2022-12-28T20:50:11;11.10;99.90
41471;DHT22;27211;51.220;5.308;2022-12-28T20:52:36;11.10;99.90
41471;DHT22;27211;51.220;5.308;2022-12-28T20:55:03;11.20;99.90
41471;DHT22;27211;51.220;5.308;2022-12-28T20:57:29;11.20;99.90
41471;DHT22;27211;51.220;5.308;2022-12-28T20:59:55;11.30;99.90
41471;DHT22;27211;51.220;5.308;2022-12-28T21:02:22;11.30;99.90
41471;DHT22;27211;51.220;5.308;2022-12-28T21:04:49;11.30;99.90
41471;DHT22;27211;51.220;5.308;2022-12-28T21:07:15;11.40;99.90
41471;DHT22;27211;51.220;5.308;2022-12-28T21:09:40;11.40;99.90
41471;DHT22;27211;51.220;5.308;2022-12-28T21:12:06;11.40;99.90
41471;DHT22;27211;51.220;5.308;2022-12-28T21:14:32;11.50;99.90
41471;DHT22;27211;51.220;5.308;2022-12-28T21:16:58;11.50;99.90
41471;DHT22;27211;51.220;5.308;2022-12-28T21:19:24;11.50;99.90
41471;DHT22;27211;51.220;5.308;2022-12-28T21:21:49;11.50;99.90
